CheckWX is a tool to help pilots better visualize weather data.  It is not intended as a substitute for an official pre-flight weather briefing.

04:40:25 UTC

KSAT TAF
San Antonio International Airport
San Antonio, Texas, USA
KSAT 230357Z 2304/2406 13015KT P6SM SCT060 FM230500 14009KT P6SM SCT050 FM230800 VRB03KT P6SM BKN015 FM231400 14007KT P6SM SCT040

Aug-23@
04:00 UTC

Aug-23 @ 04:00 UTC

Aug-23@
05:00 UTC

Aug-23 @ 05:00 UTC

KSAT 230357Z 2304/2406 13015KT P6SM SCT060
Wind
  • 130° at 15 KTS
Cloud Levels
  • Scattered at 6,000' AGL

Aug-23@
05:00 UTC

Aug-23 @ 05:00 UTC

Aug-23@
08:00 UTC

Aug-23 @ 08:00 UTC

FM230500 14009KT P6SM SCT050

From

From Standard forecast or significant change

Wind
  • 140° at 9 KTS
Cloud Levels
  • Scattered at 5,000' AGL

Aug-23@
08:00 UTC

Aug-23 @ 08:00 UTC

Aug-23@
14:00 UTC

Aug-23 @ 14:00 UTC

FM230800 VRB03KT P6SM BKN015

From

From Standard forecast or significant change

Wind
  • Variable at 3 KTS
Cloud Levels
  • Broken at 1,500' AGL

Aug-23@
14:00 UTC

Aug-23 @ 14:00 UTC

Aug-24@
06:00 UTC

Aug-24 @ 06:00 UTC

FM231400 14007KT P6SM SCT040

From

From Standard forecast or significant change

Wind
  • 140° at 7 KTS
Cloud Levels
  • Scattered at 4,000' AGL